createdAt,value
2019-05-30T00:00:11.303Z,101846.09
2019-05-30T00:02:32.360Z,101845.99
2019-05-30T00:05:02.617Z,101841.27
2019-05-30T00:07:31.565Z,101839.36
2019-05-30T00:10:00.616Z,101843.05
2019-05-30T00:12:29.321Z,101842.66
2019-05-30T00:14:58.603Z,101841.44
2019-05-30T00:17:27.376Z,101844.60
2019-05-30T00:19:56.722Z,101842.59
2019-05-30T00:22:25.522Z,101843.08
2019-05-30T00:24:54.198Z,101840.11
2019-05-30T00:27:22.972Z,101841.06
2019-05-30T00:29:51.660Z,101841.00
2019-05-30T00:32:20.329Z,101841.59
2019-05-30T00:34:49.041Z,101839.57
2019-05-30T00:37:17.724Z,101837.69
2019-05-30T00:39:46.386Z,101830.03
2019-05-30T00:42:15.155Z,101832.48
2019-05-30T00:44:43.824Z,101834.75
2019-05-30T00:47:12.522Z,101829.53
2019-05-30T00:49:41.240Z,101833.98
2019-05-30T00:52:09.936Z,101832.83
2019-05-30T00:54:38.688Z,101829.58
2019-05-30T00:57:07.493Z,101834.52
2019-05-30T00:59:36.241Z,101827.17
2019-05-30T01:02:05.007Z,101815.33
2019-05-30T01:04:33.670Z,101805.89
2019-05-30T01:07:03.568Z,101801.84
2019-05-30T01:09:32.299Z,101804.45
2019-05-30T01:12:01.129Z,101804.19
2019-05-30T01:14:29.830Z,101805.34
2019-05-30T01:16:59.030Z,101807.64
2019-05-30T01:19:27.926Z,101790.42
2019-05-30T01:21:59.202Z,101800.23
2019-05-30T01:24:28.018Z,101795.08
2019-05-30T01:26:57.160Z,101798.45
2019-05-30T01:29:25.879Z,101796.14
2019-05-30T01:31:54.544Z,101793.80
2019-05-30T01:34:23.253Z,101801.05
2019-05-30T01:36:51.927Z,101792.94
2019-05-30T01:39:20.652Z,101792.11
2019-05-30T01:41:49.388Z,101794.12
2019-05-30T01:44:18.048Z,101795.23
2019-05-30T01:46:46.740Z,101796.55
2019-05-30T01:49:15.462Z,101787.85
2019-05-30T01:51:44.144Z,101783.44
2019-05-30T01:54:12.916Z,101769.91
2019-05-30T01:56:41.571Z,101782.28
2019-05-30T01:59:10.226Z,101776.23
2019-05-30T02:01:38.998Z,101777.48
2019-05-30T02:04:07.671Z,101776.45
2019-05-30T02:06:38.191Z,101769.80
2019-05-30T02:09:09.563Z,101771.14
2019-05-30T02:11:38.612Z,101773.36
2019-05-30T02:14:07.715Z,101768.64
2019-05-30T02:16:36.447Z,101768.81
2019-05-30T02:19:05.803Z,101766.77
2019-05-30T02:21:34.622Z,101764.30
2019-05-30T02:24:03.832Z,101768.13
2019-05-30T02:26:32.579Z,101763.75
2019-05-30T02:29:01.956Z,101763.62
2019-05-30T02:31:38.821Z,101753.45
2019-05-30T02:34:02.915Z,101756.32
2019-05-30T02:36:31.803Z,101758.43
2019-05-30T02:39:00.876Z,101751.63
2019-05-30T02:41:29.612Z,101749.94
2019-05-30T02:43:58.375Z,101758.02
2019-05-30T02:46:27.170Z,101750.58
2019-05-30T02:48:59.378Z,101753.21
2019-05-30T02:51:26.229Z,101748.45
2019-05-30T02:53:54.925Z,101742.33
2019-05-30T02:56:23.590Z,101739.94
2019-05-30T02:58:52.248Z,101735.77
2019-05-30T03:01:21.020Z,101732.20
2019-05-30T03:03:49.672Z,101726.59
2019-05-30T03:06:18.491Z,101726.88
2019-05-30T03:08:47.546Z,101725.08
2019-05-30T03:11:16.251Z,101722.52
2019-05-30T03:13:44.898Z,101719.81
2019-05-30T03:16:13.800Z,101720.70
2019-05-30T03:18:42.446Z,101717.94
2019-05-30T03:21:13.434Z,101719.68
2019-05-30T03:23:41.653Z,101724.49
2019-05-30T03:26:12.959Z,101718.51
2019-05-30T03:28:40.784Z,101715.94
2019-05-30T03:31:21.275Z,101706.46
2019-05-30T03:33:42.883Z,101702.65
2019-05-30T03:36:24.067Z,101700.80
2019-05-30T03:38:41.438Z,101699.25
2019-05-30T03:41:12.129Z,101693.36
2019-05-30T03:43:42.530Z,101703.66
2019-05-30T03:46:15.023Z,101698.02
2019-05-30T03:48:47.099Z,101700.25
2019-05-30T03:51:17.700Z,101703.64
2019-05-30T03:53:46.615Z,101703.41
2019-05-30T03:56:23.800Z,101701.36
2019-05-30T03:59:01.393Z,101697.44
2019-05-30T04:01:41.820Z,101688.46
2019-05-30T04:04:22.513Z,101696.61
2019-05-30T04:06:54.111Z,101698.88
2019-05-30T04:09:25.837Z,101690.85
2019-05-30T04:12:14.895Z,101690.63
2019-05-30T04:14:47.194Z,101684.58
2019-05-30T04:17:17.656Z,101690.86
2019-05-30T04:19:46.489Z,101687.41
2019-05-30T04:22:15.568Z,101691.84
2019-05-30T04:24:44.403Z,101689.73
2019-05-30T04:27:13.867Z,101683.56
2019-05-30T04:29:42.797Z,101683.17
2019-05-30T04:32:12.460Z,101678.48
2019-05-30T04:34:41.284Z,101685.65
2019-05-30T04:37:10.711Z,101678.01
2019-05-30T04:39:39.464Z,101676.47
2019-05-30T04:42:09.358Z,101679.45
2019-05-30T04:44:38.571Z,101679.45
2019-05-30T04:47:07.329Z,101680.42
2019-05-30T04:49:36.090Z,101673.13
2019-05-30T04:52:04.842Z,101678.09
2019-05-30T04:54:33.517Z,101675.11
2019-05-30T04:57:02.286Z,101668.30
2019-05-30T04:59:31.028Z,101673.94
2019-05-30T05:01:59.730Z,101674.00
2019-05-30T05:04:28.449Z,101669.88
2019-05-30T05:06:57.285Z,101665.95
2019-05-30T05:09:26.013Z,101664.95
2019-05-30T05:11:54.715Z,101659.77
2019-05-30T05:14:23.458Z,101659.49
2019-05-30T05:16:52.224Z,101658.12
2019-05-30T05:19:22.188Z,101662.41
2019-05-30T05:21:51.346Z,101660.16
2019-05-30T05:24:20.013Z,101660.14
2019-05-30T05:26:49.274Z,101657.42
2019-05-30T05:29:18.032Z,101656.67
2019-05-30T05:31:46.852Z,101657.52
2019-05-30T05:34:16.552Z,101650.77
2019-05-30T05:36:45.455Z,101646.22
2019-05-30T05:39:14.145Z,101646.38
2019-05-30T05:41:42.873Z,101645.08
2019-05-30T05:44:11.568Z,101647.07
2019-05-30T05:46:40.337Z,101638.62
2019-05-30T05:49:09.040Z,101635.88
2019-05-30T05:51:37.753Z,101640.56
2019-05-30T05:54:06.530Z,101640.02
2019-05-30T05:56:35.200Z,101645.84
2019-05-30T05:59:03.927Z,101636.03
2019-05-30T06:01:32.698Z,101645.39
2019-05-30T06:04:12.584Z,101641.81
2019-05-30T06:06:31.863Z,101636.68
2019-05-30T06:09:00.544Z,101636.89
2019-05-30T06:11:29.348Z,101634.47
2019-05-30T06:13:58.060Z,101641.36
2019-05-30T06:16:26.784Z,101637.10
2019-05-30T06:18:55.448Z,101639.01
2019-05-30T06:21:25.384Z,101638.32
2019-05-30T06:23:54.249Z,101641.34
2019-05-30T06:26:24.165Z,101642.65
2019-05-30T06:28:53.173Z,101636.75
2019-05-30T06:31:22.481Z,101643.72
2019-05-30T06:33:51.253Z,101641.30
2019-05-30T06:36:20.933Z,101644.91
2019-05-30T06:38:49.722Z,101647.26
2019-05-30T06:41:19.383Z,101643.69
2019-05-30T06:43:48.130Z,101642.47
2019-05-30T06:46:16.804Z,101643.56
2019-05-30T06:48:45.499Z,101641.59
2019-05-30T06:51:14.779Z,101641.15
2019-05-30T06:53:43.770Z,101642.87
2019-05-30T06:56:12.429Z,101633.45
2019-05-30T06:58:48.559Z,101636.46
2019-05-30T07:01:11.556Z,101640.41
2019-05-30T07:03:40.399Z,101640.34
2019-05-30T07:06:09.662Z,101641.81
2019-05-30T07:08:38.761Z,101646.05
2019-05-30T07:11:33.615Z,101644.63
2019-05-30T07:14:02.753Z,101638.40
2019-05-30T07:16:31.552Z,101646.08
2019-05-30T07:19:02.121Z,101648.19
2019-05-30T07:21:31.773Z,101657.09
2019-05-30T07:24:00.943Z,101653.23
2019-05-30T07:26:29.854Z,101655.78
2019-05-30T07:29:00.648Z,101654.16
2019-05-30T07:31:30.196Z,101663.20
2019-05-30T07:33:59.045Z,101660.57
2019-05-30T07:36:28.234Z,101657.89
2019-05-30T07:38:56.970Z,101657.59
2019-05-30T07:41:26.848Z,101663.78
2019-05-30T07:43:55.700Z,101662.70
2019-05-30T07:46:26.750Z,101659.53
2019-05-30T07:48:55.591Z,101656.09
2019-05-30T07:51:24.636Z,101658.45
2019-05-30T07:53:53.337Z,101652.19
2019-05-30T07:56:21.997Z,101657.22
2019-05-30T07:58:52.980Z,101654.61
2019-05-30T08:01:21.729Z,101650.73
2019-05-30T08:03:50.401Z,101650.70
2019-05-30T08:06:19.096Z,101652.59
2019-05-30T08:08:47.785Z,101653.59
2019-05-30T08:11:16.520Z,101650.91
2019-05-30T08:13:45.222Z,101647.97
2019-05-30T08:16:13.951Z,101647.41
2019-05-30T08:18:42.706Z,101653.70
2019-05-30T08:21:11.416Z,101650.48
2019-05-30T08:23:40.226Z,101651.34
2019-05-30T08:26:08.883Z,101648.98
2019-05-30T08:28:38.691Z,101654.27
2019-05-30T08:31:08.071Z,101645.66
2019-05-30T08:33:37.653Z,101646.63
2019-05-30T08:36:06.513Z,101649.16
2019-05-30T08:38:35.442Z,101654.27
2019-05-30T08:41:04.198Z,101642.02
2019-05-30T08:43:33.382Z,101649.91
2019-05-30T08:46:02.164Z,101645.94
2019-05-30T08:48:32.810Z,101641.56
2019-05-30T08:51:01.392Z,101650.52
2019-05-30T08:53:30.224Z,101643.38
2019-05-30T08:55:58.856Z,101641.42
2019-05-30T08:58:27.526Z,101646.42
2019-05-30T09:00:56.300Z,101646.42
2019-05-30T09:03:25.035Z,101637.06
2019-05-30T09:06:03.460Z,101647.41
2019-05-30T09:08:24.201Z,101646.19
2019-05-30T09:10:52.891Z,101644.47
2019-05-30T09:13:21.618Z,101642.30
2019-05-30T09:15:50.390Z,101629.22
2019-05-30T09:18:19.168Z,101638.61
2019-05-30T09:20:47.931Z,101639.06
2019-05-30T09:23:16.690Z,101639.06
2019-05-30T09:25:46.958Z,101639.27
2019-05-30T09:28:15.967Z,101651.20
2019-05-30T09:30:44.787Z,101643.48
2019-05-30T09:33:13.626Z,101649.07
2019-05-30T09:35:43.002Z,101643.96
2019-05-30T09:38:11.887Z,101647.09
2019-05-30T09:40:42.003Z,101643.59
2019-05-30T09:43:10.853Z,101644.17
2019-05-30T09:45:40.818Z,101646.21
2019-05-30T09:48:09.869Z,101656.00
2019-05-30T09:50:38.548Z,101646.61
2019-05-30T09:53:07.334Z,101656.64
2019-05-30T09:55:36.086Z,101657.73
2019-05-30T09:58:04.771Z,101668.09
2019-05-30T10:00:34.753Z,101665.75
2019-05-30T10:03:03.533Z,101669.95
2019-05-30T10:05:32.197Z,101665.43
2019-05-30T10:08:00.944Z,101687.48
2019-05-30T10:10:29.651Z,101679.00
2019-05-30T10:12:58.369Z,101673.34
2019-05-30T10:15:27.318Z,101667.66
2019-05-30T10:17:57.003Z,101662.84
2019-05-30T10:20:26.272Z,101662.18
2019-05-30T10:22:55.073Z,101659.12
2019-05-30T10:25:24.126Z,101663.52
2019-05-30T10:27:54.596Z,101672.01
2019-05-30T10:30:24.057Z,101664.91
2019-05-30T10:32:53.816Z,101663.77
2019-05-30T10:35:22.915Z,101672.61
2019-05-30T10:37:52.710Z,101669.03
2019-05-30T10:40:22.011Z,101667.56
2019-05-30T10:42:51.690Z,101671.80
2019-05-30T10:45:22.177Z,101680.28
2019-05-30T10:47:51.427Z,101679.67
2019-05-30T10:50:20.485Z,101676.52
2019-05-30T10:52:49.488Z,101680.16
2019-05-30T10:55:19.550Z,101681.95
2019-05-30T10:57:49.910Z,101681.23
2019-05-30T11:00:20.645Z,101673.74
2019-05-30T11:02:50.033Z,101679.92
2019-05-30T11:05:20.426Z,101667.60
2019-05-30T11:08:01.966Z,101659.88
2019-05-30T11:10:38.976Z,101655.81
2019-05-30T11:13:13.761Z,101662.48
2019-05-30T11:15:42.639Z,101659.74
2019-05-30T11:18:11.333Z,101660.70
2019-05-30T11:20:40.102Z,101665.14
2019-05-30T11:23:08.864Z,101662.14
2019-05-30T11:25:37.646Z,101616.28
2019-05-30T11:28:07.686Z,101654.86
2019-05-30T11:30:36.535Z,101665.86
2019-05-30T11:33:06.023Z,101667.37
2019-05-30T11:35:35.301Z,101673.03
2019-05-30T11:38:04.046Z,101664.37
2019-05-30T11:40:32.771Z,101662.73
2019-05-30T11:43:01.432Z,101661.52
2019-05-30T11:45:30.238Z,101652.02
2019-05-30T11:48:00.118Z,101655.18
2019-05-30T11:50:29.831Z,101659.92
2019-05-30T11:53:00.263Z,101650.42
2019-05-30T11:55:29.198Z,101651.17
2019-05-30T11:57:58.328Z,101655.56
2019-05-30T12:00:27.516Z,101655.81
2019-05-30T12:02:56.627Z,101641.81
2019-05-30T12:05:25.611Z,101646.93
2019-05-30T12:07:54.824Z,101650.78
2019-05-30T12:10:25.011Z,101653.92
2019-05-30T12:12:55.161Z,101640.72
2019-05-30T12:15:24.193Z,101655.34
2019-05-30T12:17:53.237Z,101648.44
2019-05-30T12:20:22.129Z,101655.50
2019-05-30T12:22:51.771Z,101658.88
2019-05-30T12:25:21.606Z,101657.52
2019-05-30T12:27:50.400Z,101655.29
2019-05-30T12:30:19.968Z,101657.50
2019-05-30T12:32:48.664Z,101659.02
2019-05-30T12:35:17.917Z,101662.83
2019-05-30T12:37:54.903Z,101670.59
2019-05-30T12:40:27.659Z,101663.52
2019-05-30T12:43:03.696Z,101663.67
2019-05-30T12:45:32.765Z,101658.86
2019-05-30T12:48:01.460Z,101662.81
2019-05-30T12:50:30.237Z,101665.73
2019-05-30T12:53:00.488Z,101667.94
2019-05-30T12:55:29.485Z,101663.14
2019-05-30T12:57:58.618Z,101672.58
2019-05-30T13:00:35.649Z,101672.05
2019-05-30T13:03:04.412Z,101673.26
2019-05-30T13:05:33.283Z,101677.22
2019-05-30T13:08:21.157Z,101678.08
2019-05-30T13:10:42.787Z,101687.39
2019-05-30T13:13:11.483Z,101683.28
2019-05-30T13:15:40.311Z,101694.59
2019-05-30T13:18:08.962Z,101698.34
2019-05-30T13:20:37.750Z,101698.13
2019-05-30T13:23:06.980Z,101698.13
2019-05-30T13:25:35.793Z,101695.25
2019-05-30T13:28:07.169Z,101706.38
2019-05-30T13:30:35.031Z,101707.14
2019-05-30T13:33:04.934Z,101704.77
2019-05-30T13:35:33.732Z,101704.21
2019-05-30T13:38:03.140Z,101700.41
2019-05-30T13:40:32.164Z,101700.41
2019-05-30T13:43:01.902Z,101694.11
2019-05-30T13:45:30.678Z,101696.86
2019-05-30T13:48:00.356Z,101683.80
2019-05-30T13:50:29.294Z,101680.78
2019-05-30T13:52:58.892Z,101674.19
2019-05-30T13:55:30.238Z,101676.33
2019-05-30T13:57:59.534Z,101679.75
2019-05-30T14:00:28.303Z,101687.47
2019-05-30T14:02:57.076Z,101682.03
2019-05-30T14:05:25.854Z,101682.03
2019-05-30T14:07:54.613Z,101681.89
2019-05-30T14:10:23.425Z,101686.58
2019-05-30T14:12:52.113Z,101681.31
2019-05-30T14:15:21.164Z,101681.31
2019-05-30T14:17:49.889Z,101682.84
2019-05-30T14:20:19.488Z,101679.60
2019-05-30T14:22:48.327Z,101674.47
2019-05-30T14:25:17.281Z,101679.98
2019-05-30T14:27:45.955Z,101677.59
2019-05-30T14:30:15.542Z,101688.56
2019-05-30T14:32:44.242Z,101680.69
2019-05-30T14:35:13.876Z,101683.08
2019-05-30T14:37:42.753Z,101687.87
2019-05-30T14:40:14.827Z,101696.80
2019-05-30T14:42:43.616Z,101696.80
2019-05-30T14:45:15.006Z,101694.23
2019-05-30T14:47:43.767Z,101692.88
2019-05-30T14:50:13.275Z,101688.92
2019-05-30T14:52:42.317Z,101689.65
2019-05-30T14:55:13.383Z,101691.16
2019-05-30T14:57:42.111Z,101691.16
2019-05-30T15:00:14.698Z,101686.17
2019-05-30T15:02:43.924Z,101686.17
2019-05-30T15:05:14.116Z,101689.09
2019-05-30T15:07:42.944Z,101690.09
2019-05-30T15:10:12.751Z,101686.02
2019-05-30T15:12:41.572Z,101685.16
2019-05-30T15:15:14.287Z,101683.95
2019-05-30T15:17:41.267Z,101693.38
2019-05-30T15:20:12.058Z,101686.53
2019-05-30T15:22:41.011Z,101679.80
2019-05-30T15:25:11.951Z,101685.83
2019-05-30T15:27:40.909Z,101689.75
2019-05-30T15:30:12.626Z,101690.93
2019-05-30T15:32:41.541Z,101694.03
2019-05-30T15:35:11.100Z,101690.39
2019-05-30T15:37:41.789Z,101683.00
2019-05-30T15:40:11.148Z,101683.00
2019-05-30T15:42:39.848Z,101687.13
2019-05-30T15:45:11.753Z,101678.56
2019-05-30T15:47:40.888Z,101679.39
2019-05-30T15:50:11.158Z,101696.39
2019-05-30T15:52:40.612Z,101696.39
2019-05-30T15:55:11.386Z,101691.94
2019-05-30T15:57:40.205Z,101681.86
2019-05-30T16:00:11.905Z,101681.86
2019-05-30T16:02:41.356Z,101683.93
2019-05-30T16:05:12.353Z,101674.03
2019-05-30T16:07:41.260Z,101657.39
2019-05-30T16:10:10.858Z,101657.39
2019-05-30T16:12:39.731Z,101664.20
2019-05-30T16:15:09.176Z,101657.19
2019-05-30T16:17:37.947Z,101654.98
2019-05-30T16:20:07.370Z,101657.41
2019-05-30T16:22:36.184Z,101649.86
2019-05-30T16:25:06.813Z,101651.59
2019-05-30T16:27:35.496Z,101657.77
2019-05-30T16:30:06.211Z,101654.36
2019-05-30T16:32:35.061Z,101659.00
2019-05-30T16:35:04.704Z,101661.74
2019-05-30T16:37:33.448Z,101654.00
2019-05-30T16:40:06.273Z,101660.53
2019-05-30T16:42:32.812Z,101651.45
2019-05-30T16:45:01.661Z,101654.69
2019-05-30T16:47:30.416Z,101652.81
2019-05-30T16:49:59.167Z,101651.59
2019-05-30T16:52:27.814Z,101656.05
2019-05-30T16:54:56.510Z,101664.13
2019-05-30T16:57:25.195Z,101661.22
2019-05-30T16:59:53.912Z,101669.61
2019-05-30T17:02:22.872Z,101669.09
2019-05-30T17:04:51.644Z,101668.09
2019-05-30T17:07:21.486Z,101668.09
2019-05-30T17:09:50.308Z,101658.47
2019-05-30T17:12:19.545Z,101657.27
2019-05-30T17:14:48.410Z,101658.80
2019-05-30T17:17:18.205Z,101656.06
2019-05-30T17:19:46.974Z,101660.70
2019-05-30T17:22:16.607Z,101662.08
2019-05-30T17:24:45.408Z,101652.47
2019-05-30T17:27:14.147Z,101660.18
2019-05-30T17:29:42.885Z,101658.81
2019-05-30T17:32:11.642Z,101648.16
2019-05-30T17:34:40.379Z,101657.77
2019-05-30T17:37:09.146Z,101663.26
2019-05-30T17:39:37.897Z,101655.34
2019-05-30T17:42:06.678Z,101662.90
2019-05-30T17:44:35.426Z,101666.33
2019-05-30T17:47:04.153Z,101664.95
2019-05-30T17:49:32.908Z,101670.45
2019-05-30T17:52:01.624Z,101666.00
2019-05-30T17:54:30.370Z,101667.02
2019-05-30T17:56:59.201Z,101667.33
2019-05-30T17:59:28.559Z,101664.26
2019-05-30T18:02:00.652Z,101664.59
2019-05-30T18:04:28.631Z,101671.44
2019-05-30T18:06:59.213Z,101674.34
2019-05-30T18:09:29.048Z,101670.39
2019-05-30T18:11:57.968Z,101674.50
2019-05-30T18:14:27.166Z,101675.72
2019-05-30T18:16:56.016Z,101678.45
2019-05-30T18:19:25.235Z,101679.98
2019-05-30T18:21:54.287Z,101683.09
2019-05-30T18:24:23.451Z,101675.17
2019-05-30T18:26:52.306Z,101676.91
2019-05-30T18:29:21.749Z,101675.86
2019-05-30T18:31:50.595Z,101679.80
2019-05-30T18:34:19.335Z,101683.03
2019-05-30T18:36:48.159Z,101681.86
2019-05-30T18:39:16.831Z,101676.32
2019-05-30T18:41:45.529Z,101673.78
2019-05-30T18:44:14.524Z,101679.59
2019-05-30T18:46:43.247Z,101671.72
2019-05-30T18:49:12.022Z,101676.67
2019-05-30T18:51:40.759Z,101673.41
2019-05-30T18:54:09.516Z,101674.94
2019-05-30T18:56:38.318Z,101673.56
2019-05-30T18:59:07.092Z,101671.34
2019-05-30T19:01:35.855Z,101679.16
2019-05-30T19:04:04.927Z,101681.91
2019-05-30T19:06:33.913Z,101685.53
2019-05-30T19:09:02.795Z,101687.63
2019-05-30T19:11:35.306Z,101689.98
2019-05-30T19:14:01.938Z,101697.50
2019-05-30T19:16:30.959Z,101692.92
2019-05-30T19:19:00.775Z,101700.95
2019-05-30T19:21:30.027Z,101694.06
2019-05-30T19:23:58.925Z,101709.13
2019-05-30T19:26:28.307Z,101712.89
2019-05-30T19:28:57.099Z,101712.36
2019-05-30T19:31:26.462Z,101712.36
2019-05-30T19:33:55.299Z,101716.33
2019-05-30T19:36:24.079Z,101718.36
2019-05-30T19:38:52.837Z,101718.88
2019-05-30T19:41:21.533Z,101723.52
2019-05-30T19:43:50.361Z,101729.67
2019-05-30T19:46:19.096Z,101724.34
2019-05-30T19:48:47.797Z,101727.11
2019-05-30T19:51:16.517Z,101722.95
2019-05-30T19:53:45.239Z,101722.44
2019-05-30T19:56:13.938Z,101729.45
2019-05-30T19:58:42.682Z,101730.66
2019-05-30T20:01:11.388Z,101735.78
2019-05-30T20:03:46.629Z,101736.13
2019-05-30T20:06:10.504Z,101732.50
2019-05-30T20:08:53.292Z,101730.48
2019-05-30T20:11:09.697Z,101727.55
2019-05-30T20:13:39.195Z,101732.33
2019-05-30T20:16:07.952Z,101734.91
2019-05-30T20:18:37.670Z,101736.45
2019-05-30T20:21:06.562Z,101737.97
2019-05-30T20:23:47.548Z,101735.43
2019-05-30T20:26:05.869Z,101733.97
2019-05-30T20:28:34.814Z,101732.87
2019-05-30T20:31:03.610Z,101729.05
2019-05-30T20:33:34.457Z,101736.95
2019-05-30T20:36:03.338Z,101736.95
2019-05-30T20:38:32.030Z,101741.77
2019-05-30T20:41:00.711Z,101749.97
2019-05-30T20:43:32.521Z,101750.30
2019-05-30T20:46:00.030Z,101743.09
2019-05-30T20:48:28.713Z,101745.47
2019-05-30T20:50:57.454Z,101756.59
2019-05-30T20:53:26.240Z,101751.78
2019-05-30T20:55:54.983Z,101754.67
2019-05-30T20:58:23.670Z,101761.50
2019-05-30T21:00:52.532Z,101763.55
2019-05-30T21:03:21.217Z,101757.06
2019-05-30T21:06:10.635Z,101770.03
2019-05-30T21:08:41.257Z,101770.03
2019-05-30T21:11:11.022Z,101761.27
2019-05-30T21:13:42.309Z,101767.21
2019-05-30T21:16:13.524Z,101767.21
2019-05-30T21:18:46.018Z,101755.47
2019-05-30T21:21:14.944Z,101767.42
2019-05-30T21:23:44.449Z,101762.83
2019-05-30T21:26:14.826Z,101775.00
2019-05-30T21:28:43.565Z,101775.00
2019-05-30T21:31:12.260Z,101768.66
2019-05-30T21:33:41.957Z,101766.97
2019-05-30T21:36:11.332Z,101763.73
2019-05-30T21:38:40.043Z,101767.33
2019-05-30T21:41:08.812Z,101761.12
2019-05-30T21:43:38.336Z,101765.56
2019-05-30T21:46:07.126Z,101767.27
2019-05-30T21:48:35.865Z,101766.23
2019-05-30T21:51:04.576Z,101772.26
2019-05-30T21:53:33.332Z,101771.19
2019-05-30T21:56:02.034Z,101769.27
2019-05-30T21:58:30.819Z,101766.20
2019-05-30T22:01:20.744Z,101773.00
2019-05-30T22:03:51.146Z,101767.09
2019-05-30T22:06:19.909Z,101773.86
2019-05-30T22:08:49.335Z,101770.42
2019-05-30T22:11:18.264Z,101767.31
2019-05-30T22:13:47.699Z,101757.18
2019-05-30T22:16:16.521Z,101760.09
2019-05-30T22:18:45.985Z,101757.66
2019-05-30T22:21:14.999Z,101757.95
2019-05-30T22:23:44.138Z,101761.88
2019-05-30T22:26:14.351Z,101762.17
2019-05-30T22:28:44.371Z,101759.61
2019-05-30T22:31:13.202Z,101754.14
2019-05-30T22:33:44.471Z,101757.54
2019-05-30T22:36:13.518Z,101756.51
2019-05-30T22:38:42.744Z,101755.62
2019-05-30T22:41:11.569Z,101755.99
2019-05-30T22:43:40.232Z,101757.83
2019-05-30T22:46:08.945Z,101760.53
2019-05-30T22:48:39.715Z,101752.80
2019-05-30T22:51:08.447Z,101755.35
2019-05-30T22:53:37.145Z,101750.39
2019-05-30T22:56:05.892Z,101747.95
2019-05-30T22:58:34.657Z,101743.84
2019-05-30T23:01:03.361Z,101748.61
2019-05-30T23:03:32.083Z,101715.77
2019-05-30T23:06:00.773Z,101744.33
2019-05-30T23:08:29.457Z,101741.40
2019-05-30T23:10:58.161Z,101731.45
2019-05-30T23:13:39.623Z,101727.50
2019-05-30T23:15:57.342Z,101723.10
2019-05-30T23:18:26.001Z,101718.40
2019-05-30T23:20:54.890Z,101720.72
2019-05-30T23:23:23.669Z,101720.57
2019-05-30T23:25:53.299Z,101720.82
2019-05-30T23:28:22.114Z,101714.36
2019-05-30T23:30:51.968Z,101723.04
2019-05-30T23:33:21.028Z,101722.14
2019-05-30T23:35:50.246Z,101717.19
2019-05-30T23:38:19.103Z,101711.30
2019-05-30T23:40:48.948Z,101705.64
2019-05-30T23:43:17.859Z,101707.30
2019-05-30T23:45:46.636Z,101705.23
2019-05-30T23:48:15.336Z,101703.30
2019-05-30T23:50:44.105Z,101696.78
2019-05-30T23:53:12.831Z,101700.66
2019-05-30T23:55:41.580Z,101700.10
2019-05-30T23:58:10.282Z,101684.36
